createdAt,value
2023-04-18T00:00:33.352Z,100.00
2023-04-18T00:03:02.498Z,100.00
2023-04-18T00:05:31.246Z,100.00
2023-04-18T00:07:58.184Z,100.00
2023-04-18T00:10:25.446Z,100.00
2023-04-18T00:12:52.260Z,100.00
2023-04-18T00:15:20.479Z,100.00
2023-04-18T00:17:48.364Z,100.00
2023-04-18T00:20:15.384Z,100.00
2023-04-18T00:22:46.722Z,100.00
2023-04-18T00:25:13.716Z,100.00
2023-04-18T00:27:41.815Z,100.00
2023-04-18T00:30:09.342Z,100.00
2023-04-18T00:32:38.011Z,100.00
2023-04-18T00:35:05.455Z,100.00
2023-04-18T00:37:32.353Z,100.00
2023-04-18T00:39:59.293Z,100.00
2023-04-18T00:42:28.010Z,100.00
2023-04-18T00:44:55.328Z,100.00
2023-04-18T00:47:22.311Z,100.00
2023-04-18T00:49:49.762Z,100.00
2023-04-18T00:52:17.650Z,100.00
2023-04-18T00:54:45.247Z,100.00
2023-04-18T00:57:13.307Z,100.00
2023-04-18T00:59:40.938Z,100.00
2023-04-18T01:02:08.247Z,100.00
2023-04-18T01:04:35.636Z,100.00
2023-04-18T01:07:03.475Z,100.00
2023-04-18T01:09:30.731Z,100.00
2023-04-18T01:11:57.742Z,100.00
2023-04-18T01:14:24.812Z,100.00
2023-04-18T01:16:51.753Z,100.00
2023-04-18T01:19:19.526Z,100.00
2023-04-18T01:21:47.459Z,100.00
2023-04-18T01:24:16.433Z,100.00
2023-04-18T01:26:45.333Z,100.00
2023-04-18T01:29:12.411Z,100.00
2023-04-18T01:31:41.448Z,100.00
2023-04-18T01:34:09.230Z,100.00
2023-04-18T01:36:37.801Z,100.00
2023-04-18T01:39:04.952Z,100.00
2023-04-18T01:41:38.339Z,100.00
2023-04-18T01:44:05.803Z,100.00
2023-04-18T01:46:32.991Z,100.00
2023-04-18T01:49:08.430Z,100.00
2023-04-18T01:51:35.908Z,100.00
2023-04-18T01:54:02.996Z,100.00
2023-04-18T01:56:31.427Z,100.00
2023-04-18T01:59:00.164Z,100.00
2023-04-18T02:01:27.580Z,100.00
2023-04-18T02:03:55.130Z,100.00
2023-04-18T02:06:22.288Z,100.00
2023-04-18T02:08:50.262Z,100.00
2023-04-18T02:11:17.199Z,100.00
2023-04-18T02:13:44.360Z,100.00
2023-04-18T02:16:13.333Z,100.00
2023-04-18T02:18:43.250Z,100.00
2023-04-18T02:21:11.944Z,100.00
2023-04-18T02:23:38.888Z,100.00
2023-04-18T02:26:06.852Z,100.00
2023-04-18T02:28:33.728Z,100.00
2023-04-18T02:31:03.391Z,100.00
2023-04-18T02:33:30.334Z,100.00
2023-04-18T02:35:57.361Z,100.00
2023-04-18T02:38:24.333Z,100.00
2023-04-18T02:40:52.379Z,100.00
2023-04-18T02:43:20.874Z,100.00
2023-04-18T02:45:47.900Z,100.00
2023-04-18T02:48:14.891Z,100.00
2023-04-18T02:50:41.943Z,100.00
2023-04-18T02:53:08.898Z,100.00
2023-04-18T02:55:49.954Z,100.00
2023-04-18T02:58:17.573Z,100.00
2023-04-18T03:00:44.518Z,100.00
2023-04-18T03:03:14.404Z,100.00
2023-04-18T03:06:04.026Z,100.00
2023-04-18T03:08:33.382Z,100.00
2023-04-18T03:11:00.528Z,100.00
2023-04-18T03:13:29.960Z,100.00
2023-04-18T03:15:57.190Z,100.00
2023-04-18T03:18:25.008Z,100.00
2023-04-18T03:20:56.099Z,100.00
2023-04-18T03:23:23.339Z,100.00
2023-04-18T03:25:50.269Z,100.00
2023-04-18T03:28:17.392Z,100.00
2023-04-18T03:30:44.476Z,100.00
2023-04-18T03:33:11.377Z,100.00
2023-04-18T03:35:38.552Z,100.00
2023-04-18T03:38:05.509Z,100.00
2023-04-18T03:40:36.362Z,100.00
2023-04-18T03:43:10.306Z,100.00
2023-04-18T03:45:37.368Z,100.00
2023-04-18T03:48:05.486Z,100.00
2023-04-18T03:50:35.941Z,100.00
2023-04-18T03:53:05.767Z,100.00
2023-04-18T03:55:35.871Z,100.00
2023-04-18T03:58:03.397Z,100.00
2023-04-18T04:00:30.918Z,100.00
2023-04-18T04:03:07.250Z,100.00
2023-04-18T04:05:34.416Z,100.00
2023-04-18T04:08:01.580Z,100.00
2023-04-18T04:10:28.396Z,100.00
2023-04-18T04:12:55.472Z,100.00
2023-04-18T04:15:23.295Z,100.00
2023-04-18T04:18:00.066Z,100.00
2023-04-18T04:20:27.958Z,100.00
2023-04-18T04:23:02.871Z,100.00
2023-04-18T04:25:33.487Z,100.00
2023-04-18T04:28:04.540Z,100.00
2023-04-18T04:30:38.308Z,100.00
2023-04-18T04:33:06.678Z,100.00
2023-04-18T04:35:34.973Z,100.00
2023-04-18T04:38:02.022Z,100.00
2023-04-18T04:40:35.850Z,100.00
2023-04-18T04:43:15.906Z,100.00
2023-04-18T04:45:45.497Z,100.00
2023-04-18T04:48:12.555Z,100.00
2023-04-18T04:50:41.724Z,99.25
2023-04-18T04:53:11.942Z,100.00
2023-04-18T04:55:39.305Z,100.00
2023-04-18T04:58:06.315Z,100.00
2023-04-18T05:01:02.404Z,100.00
2023-04-18T05:03:31.795Z,100.00
2023-04-18T05:05:59.298Z,99.79
2023-04-18T05:08:26.388Z,100.00
2023-04-18T05:10:53.225Z,100.00
2023-04-18T05:13:20.197Z,100.00
2023-04-18T05:15:47.148Z,100.00
2023-04-18T05:18:16.982Z,100.00
2023-04-18T05:20:43.919Z,100.00
2023-04-18T05:23:10.867Z,100.00
2023-04-18T05:25:37.785Z,100.00
2023-04-18T05:28:04.930Z,100.00
2023-04-18T05:30:31.874Z,99.14
2023-04-18T05:32:58.753Z,98.22
2023-04-18T05:35:25.812Z,96.62
2023-04-18T05:37:52.796Z,95.95
2023-04-18T05:40:19.740Z,94.73
2023-04-18T05:42:46.699Z,94.65
2023-04-18T05:45:13.536Z,94.61
2023-04-18T05:47:40.650Z,95.32
2023-04-18T05:50:08.343Z,95.18
2023-04-18T05:52:39.084Z,95.89
2023-04-18T05:55:07.118Z,96.28
2023-04-18T05:57:34.050Z,95.08
2023-04-18T06:00:00.987Z,96.18
2023-04-18T06:02:28.192Z,94.72
2023-04-18T06:04:56.705Z,94.09
2023-04-18T06:07:25.478Z,93.51
2023-04-18T06:09:54.090Z,93.37
2023-04-18T06:12:20.988Z,93.35
2023-04-18T06:14:47.847Z,91.18
2023-04-18T06:17:14.773Z,88.62
2023-04-18T06:19:41.861Z,89.36
2023-04-18T06:22:08.693Z,90.26
2023-04-18T06:24:35.671Z,89.72
2023-04-18T06:27:03.195Z,88.16
2023-04-18T06:29:33.274Z,88.45
2023-04-18T06:32:00.373Z,88.25
2023-04-18T06:34:27.469Z,87.12
2023-04-18T06:36:54.608Z,88.76
2023-04-18T06:39:21.813Z,88.93
2023-04-18T06:41:49.589Z,88.26
2023-04-18T06:44:27.466Z,91.01
2023-04-18T06:46:55.151Z,92.42
2023-04-18T06:49:26.248Z,92.00
2023-04-18T06:51:53.899Z,88.30
2023-04-18T06:54:20.678Z,91.85
2023-04-18T06:56:47.883Z,92.73
2023-04-18T06:59:14.989Z,90.01
2023-04-18T07:01:45.094Z,88.83
2023-04-18T07:04:12.074Z,92.93
2023-04-18T07:06:39.187Z,89.61
2023-04-18T07:09:06.126Z,88.60
2023-04-18T07:11:33.179Z,90.88
2023-04-18T07:14:00.017Z,90.96
2023-04-18T07:16:27.157Z,88.25
2023-04-18T07:18:54.096Z,86.03
2023-04-18T07:21:20.997Z,84.43
2023-04-18T07:23:47.860Z,82.33
2023-04-18T07:40:21.315Z,83.75
2023-04-18T07:42:48.164Z,82.95
2023-04-18T07:45:16.003Z,85.11
2023-04-18T07:47:43.022Z,82.78
2023-04-18T07:50:10.492Z,84.37
2023-04-18T07:52:39.343Z,84.50
2023-04-18T07:55:07.114Z,83.17
2023-04-18T07:57:33.998Z,83.33
2023-04-18T08:00:01.015Z,88.39
2023-04-18T08:02:27.943Z,89.83
2023-04-18T08:04:56.231Z,91.24
2023-04-18T08:07:23.343Z,95.52
2023-04-18T08:09:50.492Z,94.74
2023-04-18T08:12:17.499Z,94.87
2023-04-18T08:14:44.370Z,94.89
2023-04-18T08:17:11.279Z,94.73
2023-04-18T08:19:38.164Z,95.02
2023-04-18T08:22:10.389Z,95.50
2023-04-18T08:24:39.103Z,95.47
2023-04-18T08:27:06.479Z,96.63
2023-04-18T08:29:33.691Z,95.69
2023-04-18T08:32:00.944Z,95.02
2023-04-18T08:34:29.420Z,94.54
2023-04-18T08:36:56.767Z,93.44
2023-04-18T08:39:25.263Z,93.51
2023-04-18T08:41:59.632Z,94.46
2023-04-18T08:44:29.674Z,95.46
2023-04-18T08:46:57.699Z,95.86
2023-04-18T08:49:25.348Z,94.56
2023-04-18T08:51:53.141Z,92.54
2023-04-18T08:54:22.691Z,90.05
2023-04-18T08:57:06.515Z,87.52
2023-04-18T08:59:35.781Z,88.00
2023-04-18T09:02:04.326Z,86.04
2023-04-18T09:04:39.914Z,81.55
2023-04-18T09:07:09.397Z,80.89
2023-04-18T09:09:53.560Z,78.82
2023-04-18T09:12:22.916Z,74.09
2023-04-18T09:14:51.636Z,64.56
2023-04-18T09:17:51.487Z,60.15
2023-04-18T09:20:41.479Z,63.65
2023-04-18T09:23:16.292Z,64.26
2023-04-18T09:25:48.870Z,65.98
2023-04-18T09:28:29.872Z,65.75
2023-04-18T09:31:18.196Z,64.51
2023-04-18T09:33:57.116Z,66.06
2023-04-18T09:36:29.108Z,65.36
2023-04-18T09:38:57.232Z,64.99
2023-04-18T09:41:24.531Z,64.73
2023-04-18T09:44:12.304Z,63.24
2023-04-18T09:46:43.293Z,60.24
2023-04-18T09:49:11.561Z,55.30
2023-04-18T09:51:41.645Z,59.65
2023-04-18T09:54:11.618Z,59.25
2023-04-18T09:56:42.035Z,60.61
2023-04-18T09:59:10.400Z,57.25
2023-04-18T10:01:38.593Z,54.19
2023-04-18T10:04:07.960Z,51.12
2023-04-18T10:06:38.608Z,43.14
2023-04-18T10:09:06.534Z,47.32
2023-04-18T10:11:33.664Z,47.18
2023-04-18T10:14:07.933Z,43.97
2023-04-18T10:16:36.270Z,45.26
2023-04-18T10:19:26.214Z,45.11
2023-04-18T10:21:58.480Z,46.81
2023-04-18T10:24:44.129Z,42.85
2023-04-18T10:27:11.202Z,41.01
2023-04-18T10:29:52.050Z,43.41
2023-04-18T10:32:22.238Z,39.69
2023-04-18T10:34:49.893Z,41.05
2023-04-18T10:37:18.086Z,39.11
2023-04-18T10:40:00.353Z,39.64
2023-04-18T10:42:45.681Z,35.94
2023-04-18T10:45:23.253Z,38.73
2023-04-18T10:47:50.975Z,38.80
2023-04-18T10:50:17.943Z,41.38
2023-04-18T10:52:44.970Z,43.56
2023-04-18T10:55:24.598Z,43.09
2023-04-18T10:57:51.847Z,40.38
2023-04-18T11:00:21.594Z,44.74
2023-04-18T11:02:51.723Z,40.40
2023-04-18T11:05:21.357Z,44.29
2023-04-18T11:07:49.475Z,43.22
2023-04-18T11:10:25.587Z,45.76
2023-04-18T11:12:53.528Z,44.47
2023-04-18T11:15:22.601Z,43.24
2023-04-18T11:17:56.472Z,48.12
2023-04-18T11:20:23.321Z,53.35
2023-04-18T11:22:57.765Z,55.39
2023-04-18T11:25:26.137Z,58.14
2023-04-18T11:27:53.209Z,58.81
2023-04-18T11:30:20.251Z,59.12
2023-04-18T11:32:47.334Z,60.35
2023-04-18T11:35:15.814Z,62.16
2023-04-18T11:37:50.022Z,63.46
2023-04-18T11:40:17.175Z,65.08
2023-04-18T11:42:52.883Z,64.29
2023-04-18T11:45:19.813Z,62.88
2023-04-18T11:47:46.862Z,62.86
2023-04-18T11:50:14.191Z,62.18
2023-04-18T11:52:42.675Z,62.52
2023-04-18T11:55:18.525Z,62.09
2023-04-18T11:57:56.479Z,63.55
2023-04-18T12:00:32.992Z,66.64
2023-04-18T12:03:01.999Z,66.16
2023-04-18T12:05:30.802Z,66.60
2023-04-18T12:08:11.415Z,66.60
2023-04-18T12:10:45.227Z,66.73
2023-04-18T12:13:12.177Z,66.68
2023-04-18T12:15:43.561Z,67.47
2023-04-18T12:18:12.702Z,67.40
2023-04-18T12:20:50.664Z,67.24
2023-04-18T12:23:36.859Z,67.49
2023-04-18T12:26:07.233Z,65.88
2023-04-18T12:28:35.452Z,64.09
2023-04-18T12:31:03.334Z,64.67
2023-04-18T12:33:30.591Z,66.14
2023-04-18T12:35:57.653Z,66.32
2023-04-18T12:38:24.743Z,66.05
2023-04-18T12:40:52.424Z,65.08
2023-04-18T12:43:19.706Z,65.77
2023-04-18T12:45:47.432Z,64.78
2023-04-18T12:48:14.926Z,65.23
2023-04-18T12:50:41.905Z,65.93
2023-04-18T12:53:08.816Z,65.63
2023-04-18T12:55:36.503Z,65.14
2023-04-18T12:58:03.610Z,64.92
2023-04-18T13:00:32.687Z,65.22
2023-04-18T13:03:00.364Z,65.05
2023-04-18T13:05:32.493Z,65.35
2023-04-18T13:08:12.851Z,65.45
2023-04-18T13:10:43.887Z,64.71
2023-04-18T13:13:10.830Z,65.66
2023-04-18T13:15:37.800Z,64.93
2023-04-18T13:18:06.513Z,67.65
2023-04-18T13:20:34.442Z,70.04
2023-04-18T13:23:04.158Z,72.77
2023-04-18T13:25:31.397Z,75.50
2023-04-18T13:27:58.708Z,78.22
2023-04-18T13:30:25.826Z,79.62
2023-04-18T13:32:52.931Z,80.46
2023-04-18T13:35:20.157Z,81.11
2023-04-18T13:37:47.097Z,81.68
2023-04-18T13:40:14.448Z,82.01
2023-04-18T13:42:41.358Z,82.10
2023-04-18T13:45:08.439Z,81.40
2023-04-18T13:47:35.414Z,81.56
2023-04-18T13:50:02.394Z,81.02
2023-04-18T13:52:29.310Z,81.95
2023-04-18T13:54:56.184Z,81.69
2023-04-18T13:57:23.426Z,81.76
2023-04-18T13:59:50.343Z,82.29
2023-04-18T14:02:17.411Z,83.12
2023-04-18T14:04:44.693Z,82.10
2023-04-18T14:07:11.626Z,81.32
2023-04-18T14:09:38.575Z,81.19
2023-04-18T14:12:06.100Z,80.99
2023-04-18T14:14:33.012Z,82.58
2023-04-18T14:16:59.901Z,82.50
2023-04-18T14:19:27.472Z,81.25
2023-04-18T14:21:54.722Z,80.86
2023-04-18T14:24:21.603Z,81.09
2023-04-18T14:26:48.703Z,81.33
2023-04-18T14:29:16.035Z,81.44
2023-04-18T14:31:43.066Z,82.57
2023-04-18T14:34:10.028Z,82.59
2023-04-18T14:36:37.088Z,82.76
2023-04-18T14:39:04.758Z,82.92
2023-04-18T14:41:31.916Z,83.28
2023-04-18T14:43:59.325Z,84.31
2023-04-18T14:46:28.248Z,83.64
2023-04-18T14:48:55.326Z,85.01
2023-04-18T14:51:24.018Z,84.27
2023-04-18T14:53:51.361Z,84.98
2023-04-18T14:56:21.214Z,84.31
2023-04-18T14:58:48.338Z,85.42
2023-04-18T15:01:15.633Z,88.52
2023-04-18T15:03:42.664Z,90.18
2023-04-18T15:06:09.873Z,91.41
2023-04-18T15:08:37.025Z,91.24
2023-04-18T15:11:08.313Z,90.20
2023-04-18T15:13:35.809Z,89.35
2023-04-18T15:16:03.207Z,87.88
2023-04-18T15:18:30.320Z,89.16
2023-04-18T15:20:59.158Z,87.63
2023-04-18T15:23:26.242Z,87.12
2023-04-18T15:25:53.235Z,85.92
2023-04-18T15:28:20.378Z,87.53
2023-04-18T15:30:47.588Z,88.45
2023-04-18T15:33:15.740Z,88.06
2023-04-18T15:35:42.800Z,86.96
2023-04-18T15:38:11.704Z,87.17
2023-04-18T15:40:38.601Z,87.55
2023-04-18T15:43:06.132Z,89.09
2023-04-18T15:45:33.548Z,90.73
2023-04-18T15:48:00.529Z,91.67
2023-04-18T15:50:27.785Z,92.44
2023-04-18T15:52:54.840Z,92.98
2023-04-18T15:55:21.749Z,93.50
2023-04-18T15:57:48.605Z,93.99
2023-04-18T16:00:16.377Z,93.44
2023-04-18T16:02:46.831Z,94.04
2023-04-18T16:05:15.544Z,94.48
2023-04-18T16:07:43.325Z,94.43
2023-04-18T16:10:11.259Z,93.83
2023-04-18T16:12:39.847Z,92.91
2023-04-18T16:15:08.757Z,91.64
2023-04-18T16:17:36.944Z,90.70
2023-04-18T16:20:04.842Z,90.37
2023-04-18T16:22:31.900Z,90.20
2023-04-18T16:24:58.840Z,90.57
2023-04-18T16:27:25.793Z,92.88
2023-04-18T16:29:53.872Z,95.76
2023-04-18T16:32:21.376Z,97.43
2023-04-18T16:34:48.629Z,98.84
2023-04-18T16:37:15.812Z,99.31
2023-04-18T16:39:43.111Z,99.01
2023-04-18T16:42:10.199Z,100.00
2023-04-18T16:44:37.065Z,100.00
2023-04-18T16:47:05.236Z,100.00
2023-04-18T16:49:32.154Z,100.00
2023-04-18T16:51:59.114Z,100.00
2023-04-18T16:54:26.081Z,100.00
2023-04-18T16:56:53.091Z,100.00
2023-04-18T16:59:19.920Z,100.00
2023-04-18T17:01:46.981Z,100.00
2023-04-18T17:04:15.445Z,100.00
2023-04-18T17:06:43.789Z,100.00
2023-04-18T17:09:13.671Z,100.00
2023-04-18T17:11:41.430Z,100.00
2023-04-18T17:14:08.915Z,100.00
2023-04-18T17:16:40.188Z,100.00
2023-04-18T17:19:07.690Z,100.00
2023-04-18T17:21:35.611Z,100.00
2023-04-18T17:24:04.129Z,99.19
2023-04-18T17:26:31.408Z,97.84
2023-04-18T17:28:58.431Z,96.28
2023-04-18T17:31:25.379Z,96.17
2023-04-18T17:33:52.930Z,94.28
2023-04-18T17:36:19.721Z,93.38
2023-04-18T17:38:49.004Z,92.10
2023-04-18T17:41:20.341Z,91.79
2023-04-18T17:43:48.046Z,92.82
2023-04-18T17:46:14.983Z,91.44
2023-04-18T17:48:42.001Z,91.30
2023-04-18T17:51:08.858Z,91.45
2023-04-18T17:53:35.863Z,94.38
2023-04-18T17:56:03.787Z,94.75
2023-04-18T17:58:31.303Z,94.18
2023-04-18T18:00:58.178Z,93.38
2023-04-18T18:03:25.480Z,94.21
2023-04-18T18:05:54.976Z,91.10
2023-04-18T18:08:22.730Z,89.86
2023-04-18T18:10:49.900Z,94.66
2023-04-18T18:13:17.042Z,94.15
2023-04-18T18:15:43.937Z,95.46
2023-04-18T18:18:11.100Z,96.75
2023-04-18T18:20:38.085Z,99.07
2023-04-18T18:23:04.945Z,99.55
2023-04-18T18:25:31.846Z,100.00
2023-04-18T18:27:58.770Z,100.00
2023-04-18T18:30:25.889Z,99.53
2023-04-18T18:32:53.591Z,100.00
2023-04-18T18:35:20.785Z,100.00
2023-04-18T18:37:47.965Z,100.00
2023-04-18T18:40:15.219Z,100.00
2023-04-18T18:42:42.663Z,100.00
2023-04-18T18:45:10.345Z,100.00
2023-04-18T18:47:39.647Z,100.00
2023-04-18T18:50:07.974Z,100.00
2023-04-18T18:52:35.356Z,100.00
2023-04-18T18:55:03.278Z,100.00
2023-04-18T18:57:30.758Z,100.00
2023-04-18T18:59:57.654Z,100.00
2023-04-18T19:02:24.638Z,100.00
2023-04-18T19:04:51.903Z,100.00
2023-04-18T19:07:18.913Z,100.00
2023-04-18T19:09:46.571Z,100.00
2023-04-18T19:12:13.590Z,100.00
2023-04-18T19:14:42.345Z,100.00
2023-04-18T19:17:09.597Z,100.00
2023-04-18T19:19:36.526Z,100.00
2023-04-18T19:22:03.436Z,100.00
2023-04-18T19:24:32.133Z,100.00
2023-04-18T19:26:59.874Z,100.00
2023-04-18T19:42:05.191Z,100.00
2023-04-18T19:44:32.443Z,100.00
2023-04-18T19:46:59.487Z,100.00
2023-04-18T19:49:26.435Z,100.00
2023-04-18T19:51:53.247Z,100.00
2023-04-18T19:54:21.654Z,100.00
2023-04-18T19:56:49.229Z,100.00
2023-04-18T19:59:16.415Z,100.00
2023-04-18T20:01:43.689Z,100.00
2023-04-18T20:04:10.854Z,100.00
2023-04-18T20:06:39.790Z,100.00
2023-04-18T20:09:08.709Z,100.00
2023-04-18T20:11:35.914Z,100.00
2023-04-18T20:14:03.462Z,100.00
2023-04-18T20:16:30.809Z,100.00
2023-04-18T20:19:01.777Z,100.00
2023-04-18T20:21:35.299Z,100.00
2023-04-18T20:24:02.188Z,100.00
2023-04-18T20:26:29.627Z,100.00
2023-04-18T20:28:56.519Z,100.00
2023-04-18T20:31:23.506Z,100.00
2023-04-18T20:33:50.377Z,100.00
2023-04-18T20:36:21.868Z,100.00
2023-04-18T20:38:50.475Z,100.00
2023-04-18T20:41:19.104Z,100.00
2023-04-18T20:43:46.942Z,100.00
2023-04-18T20:46:14.174Z,100.00
2023-04-18T20:48:41.199Z,100.00
2023-04-18T20:51:08.142Z,100.00
2023-04-18T20:53:35.070Z,100.00
2023-04-18T20:56:05.412Z,100.00
2023-04-18T20:58:32.292Z,100.00
2023-04-18T21:00:59.233Z,100.00
2023-04-18T21:03:26.219Z,100.00
2023-04-18T21:05:53.181Z,100.00
2023-04-18T21:08:20.246Z,100.00
2023-04-18T21:10:47.172Z,100.00
2023-04-18T21:13:14.131Z,100.00
2023-04-18T21:15:42.336Z,100.00
2023-04-18T21:18:09.579Z,100.00
2023-04-18T21:20:37.009Z,100.00
2023-04-18T21:23:03.874Z,100.00
2023-04-18T21:25:30.861Z,100.00
2023-04-18T21:27:57.790Z,100.00
2023-04-18T21:30:24.680Z,100.00
2023-04-18T21:32:51.798Z,100.00
2023-04-18T21:35:20.276Z,100.00
2023-04-18T21:37:48.305Z,99.76
2023-04-18T21:40:15.417Z,100.00
2023-04-18T21:42:42.312Z,100.00
2023-04-18T21:45:10.896Z,100.00
2023-04-18T21:47:38.495Z,100.00
2023-04-18T21:50:06.143Z,100.00
2023-04-18T21:52:33.057Z,100.00
2023-04-18T21:55:00.007Z,100.00
2023-04-18T21:57:26.907Z,100.00
2023-04-18T21:59:55.260Z,100.00
2023-04-18T22:05:09.012Z,100.00
2023-04-18T22:07:40.773Z,100.00
2023-04-18T22:10:17.896Z,100.00
2023-04-18T22:12:44.933Z,100.00
2023-04-18T22:15:12.533Z,100.00
2023-04-18T22:17:41.513Z,100.00
2023-04-18T22:20:08.995Z,100.00
2023-04-18T22:22:35.933Z,100.00
2023-04-18T22:25:02.900Z,100.00
2023-04-18T22:27:29.915Z,100.00
2023-04-18T22:29:56.834Z,100.00
2023-04-18T22:32:23.866Z,100.00
2023-04-18T22:34:50.717Z,100.00
2023-04-18T22:37:17.653Z,100.00
2023-04-18T22:39:44.742Z,100.00
2023-04-18T22:42:11.676Z,100.00
2023-04-18T22:44:38.474Z,100.00
2023-04-18T22:47:05.644Z,100.00
2023-04-18T22:49:33.445Z,100.00
2023-04-18T22:52:01.515Z,100.00
2023-04-18T22:54:28.515Z,100.00
2023-04-18T22:56:56.144Z,100.00
2023-04-18T22:59:23.086Z,100.00
2023-04-18T23:01:49.988Z,100.00
2023-04-18T23:04:17.082Z,100.00
2023-04-18T23:06:46.756Z,100.00
2023-04-18T23:09:16.601Z,100.00
2023-04-18T23:11:43.487Z,100.00
2023-04-18T23:14:10.338Z,100.00
2023-04-18T23:16:37.157Z,100.00
2023-04-18T23:19:04.597Z,100.00
2023-04-18T23:21:32.276Z,100.00
2023-04-18T23:23:59.898Z,100.00
2023-04-18T23:26:27.263Z,100.00
2023-04-18T23:28:54.255Z,100.00
2023-04-18T23:31:22.059Z,100.00
2023-04-18T23:33:48.990Z,100.00
2023-04-18T23:36:16.371Z,100.00
2023-04-18T23:38:43.409Z,100.00
2023-04-18T23:41:10.298Z,100.00
2023-04-18T23:43:37.106Z,100.00
2023-04-18T23:46:04.118Z,99.84
2023-04-18T23:48:31.109Z,100.00
2023-04-18T23:50:58.128Z,100.00
2023-04-18T23:53:25.323Z,100.00
2023-04-18T23:55:53.435Z,100.00
2023-04-18T23:58:20.356Z,100.00
